createdAt,value
2019-02-18T00:01:03.618Z,72.93
2019-02-18T00:03:33.124Z,72.65
2019-02-18T00:06:02.777Z,72.81
2019-02-18T00:08:32.764Z,72.81
2019-02-18T00:11:02.254Z,72.30
2019-02-18T00:13:32.232Z,72.85
2019-02-18T00:16:01.916Z,72.31
2019-02-18T00:18:31.469Z,73.11
2019-02-18T00:21:00.954Z,73.42
2019-02-18T00:23:30.558Z,73.83
2019-02-18T00:26:00.069Z,74.48
2019-02-18T00:28:29.564Z,75.36
2019-02-18T00:30:59.205Z,75.75
2019-02-18T00:33:28.712Z,75.76
2019-02-18T00:35:58.237Z,75.72
2019-02-18T00:38:27.783Z,75.98
2019-02-18T00:40:57.365Z,76.06
2019-02-18T00:43:26.866Z,75.72
2019-02-18T00:45:57.646Z,75.86
2019-02-18T00:48:27.236Z,75.09
2019-02-18T00:50:56.743Z,74.75
2019-02-18T00:53:27.310Z,74.52
2019-02-18T00:55:56.812Z,73.87
2019-02-18T00:58:26.762Z,74.21
2019-02-18T01:00:56.301Z,74.83
2019-02-18T01:03:25.828Z,75.10
2019-02-18T01:05:55.474Z,75.32
2019-02-18T01:08:25.011Z,75.58
2019-02-18T01:10:54.581Z,75.95
2019-02-18T01:13:24.114Z,76.39
2019-02-18T01:15:53.894Z,76.68
2019-02-18T01:18:23.405Z,76.60
2019-02-18T01:20:52.983Z,76.41
2019-02-18T01:23:22.599Z,76.15
2019-02-18T01:25:52.574Z,76.14
2019-02-18T01:28:22.084Z,76.18
2019-02-18T01:30:51.662Z,76.56
2019-02-18T01:33:21.189Z,76.18
2019-02-18T01:35:50.834Z,76.56
2019-02-18T01:38:20.459Z,76.52
2019-02-18T01:40:50.015Z,75.89
2019-02-18T01:43:19.525Z,75.24
2019-02-18T01:45:49.078Z,74.74
2019-02-18T01:48:18.620Z,74.39
2019-02-18T01:50:48.130Z,75.25
2019-02-18T01:53:17.721Z,75.62
2019-02-18T01:55:47.241Z,75.59
2019-02-18T01:58:16.814Z,75.43
2019-02-18T02:00:46.402Z,75.33
2019-02-18T02:03:15.915Z,73.91
2019-02-18T02:05:45.441Z,74.68
2019-02-18T02:08:15.097Z,74.47
2019-02-18T02:10:44.675Z,74.19
2019-02-18T02:13:30.134Z,74.16
2019-02-18T02:16:01.341Z,73.56
2019-02-18T02:18:30.994Z,73.15
2019-02-18T02:21:00.689Z,73.44
2019-02-18T02:23:30.190Z,73.95
2019-02-18T02:25:59.725Z,73.84
2019-02-18T02:28:29.269Z,72.70
2019-02-18T02:31:01.066Z,72.61
2019-02-18T02:33:30.024Z,71.94
2019-02-18T02:35:59.672Z,70.54
2019-02-18T02:38:29.306Z,70.32
2019-02-18T02:40:58.832Z,70.79
2019-02-18T02:43:29.605Z,70.39
2019-02-18T02:45:59.108Z,70.07
2019-02-18T02:48:29.106Z,71.09
2019-02-18T02:50:58.654Z,71.84
2019-02-18T02:53:28.625Z,71.86
2019-02-18T02:55:58.120Z,72.37
2019-02-18T02:58:27.774Z,71.63
2019-02-18T03:00:57.347Z,71.00
2019-02-18T03:03:26.921Z,71.13
2019-02-18T03:05:56.577Z,71.79
2019-02-18T03:08:26.079Z,72.22
2019-02-18T03:10:55.593Z,71.75
2019-02-18T03:13:25.131Z,71.41
2019-02-18T03:15:54.647Z,71.30
2019-02-18T03:18:24.147Z,70.99
2019-02-18T03:20:53.705Z,70.93
2019-02-18T03:23:23.245Z,71.22
2019-02-18T03:25:53.681Z,71.09
2019-02-18T03:28:47.303Z,71.23
2019-02-18T03:31:21.519Z,71.46
2019-02-18T03:34:01.777Z,72.29
2019-02-18T03:36:31.312Z,72.61
2019-02-18T03:39:00.879Z,73.04
2019-02-18T03:41:30.565Z,72.43
2019-02-18T03:44:00.106Z,72.84
2019-02-18T03:46:29.609Z,72.45
2019-02-18T03:49:01.750Z,72.19
2019-02-18T03:51:31.250Z,72.51
2019-02-18T03:54:00.934Z,72.25
2019-02-18T03:56:30.613Z,72.54
2019-02-18T03:59:00.250Z,72.35
2019-02-18T04:01:29.821Z,71.89
2019-02-18T04:03:59.482Z,72.07
2019-02-18T04:06:29.116Z,72.12
2019-02-18T04:08:58.689Z,72.28
2019-02-18T04:11:28.486Z,71.18
2019-02-18T04:13:57.999Z,71.37
2019-02-18T04:16:27.585Z,71.96
2019-02-18T04:18:57.187Z,71.65
2019-02-18T04:21:26.803Z,71.67
2019-02-18T04:23:56.377Z,71.57
2019-02-18T04:26:25.925Z,71.01
2019-02-18T04:28:55.510Z,71.25
2019-02-18T04:31:25.020Z,70.75
2019-02-18T04:33:54.917Z,70.28
2019-02-18T04:36:24.513Z,70.75
2019-02-18T04:38:54.543Z,70.28
2019-02-18T04:41:24.370Z,70.02
2019-02-18T04:43:53.892Z,71.02
2019-02-18T04:46:23.611Z,71.41
2019-02-18T04:48:53.181Z,70.99
2019-02-18T04:51:24.760Z,70.78
2019-02-18T04:53:54.278Z,71.43
2019-02-18T04:56:23.872Z,72.44
2019-02-18T04:58:53.538Z,71.77
2019-02-18T05:01:23.080Z,71.95
2019-02-18T05:03:52.661Z,71.46
2019-02-18T05:06:22.314Z,71.04
2019-02-18T05:08:51.830Z,70.46
2019-02-18T05:11:21.390Z,70.76
2019-02-18T05:13:50.898Z,71.13
2019-02-18T05:16:20.510Z,71.10
2019-02-18T05:18:50.304Z,71.43
2019-02-18T05:21:19.824Z,71.66
2019-02-18T05:23:49.783Z,71.82
2019-02-18T05:26:19.315Z,72.77
2019-02-18T05:28:48.850Z,72.42
2019-02-18T05:31:18.369Z,72.64
2019-02-18T05:33:47.977Z,72.30
2019-02-18T05:36:17.626Z,71.75
2019-02-18T05:38:47.119Z,71.68
2019-02-18T05:41:16.721Z,71.21
2019-02-18T05:43:46.229Z,71.89
2019-02-18T05:46:15.740Z,71.58
2019-02-18T05:48:45.304Z,71.26
2019-02-18T05:51:14.819Z,71.12
2019-02-18T05:53:44.400Z,70.54
2019-02-18T05:56:13.945Z,70.65
2019-02-18T05:58:43.459Z,70.38
2019-02-18T06:01:13.041Z,70.42
2019-02-18T06:03:42.912Z,70.36
2019-02-18T06:06:12.421Z,71.00
2019-02-18T06:08:41.932Z,71.41
2019-02-18T06:11:11.478Z,71.58
2019-02-18T06:13:40.982Z,71.45
2019-02-18T06:16:10.474Z,70.85
2019-02-18T06:18:40.047Z,71.08
2019-02-18T06:21:09.571Z,70.89
2019-02-18T06:23:39.083Z,70.99
2019-02-18T06:26:10.687Z,70.49
2019-02-18T06:28:40.248Z,70.92
2019-02-18T06:31:09.756Z,70.86
2019-02-18T06:33:39.406Z,71.34
2019-02-18T06:36:08.921Z,71.58
2019-02-18T06:38:38.421Z,72.04
2019-02-18T06:41:08.039Z,71.62
2019-02-18T06:43:37.544Z,72.55
2019-02-18T06:46:11.432Z,71.87
2019-02-18T06:48:42.738Z,71.12
2019-02-18T06:51:12.338Z,70.68
2019-02-18T06:53:41.897Z,69.79
2019-02-18T06:56:11.588Z,69.95
2019-02-18T06:58:42.765Z,68.84
2019-02-18T07:01:13.989Z,68.01
2019-02-18T07:03:45.531Z,65.16
2019-02-18T07:06:25.895Z,64.70
2019-02-18T07:08:56.144Z,64.35
2019-02-18T07:11:30.846Z,61.52
2019-02-18T07:14:00.542Z,59.78
2019-02-18T07:16:30.097Z,58.71
2019-02-18T07:18:59.631Z,56.24
2019-02-18T07:21:30.087Z,54.71
2019-02-18T07:24:03.052Z,53.58
2019-02-18T07:26:32.557Z,51.88
2019-02-18T07:29:02.289Z,50.78
2019-02-18T07:31:31.869Z,48.92
2019-02-18T07:34:01.396Z,48.21
2019-02-18T07:36:31.632Z,47.23
2019-02-18T07:39:01.391Z,46.86
2019-02-18T07:41:31.094Z,45.96
2019-02-18T07:44:00.723Z,44.82
2019-02-18T07:46:30.465Z,43.58
2019-02-18T07:49:01.785Z,41.52
2019-02-18T07:51:31.393Z,42.19
2019-02-18T07:54:00.931Z,42.54
2019-02-18T07:56:30.460Z,41.31
2019-02-18T07:59:00.097Z,40.35
2019-02-18T08:01:29.815Z,39.90
2019-02-18T08:03:59.354Z,39.28
2019-02-18T08:06:28.898Z,38.78
2019-02-18T08:08:58.410Z,37.69
2019-02-18T08:11:27.903Z,37.55
2019-02-18T08:13:57.452Z,36.84
2019-02-18T08:16:26.966Z,36.30
2019-02-18T08:18:56.473Z,35.13
2019-02-18T08:21:26.795Z,33.72
2019-02-18T08:24:00.142Z,33.97
2019-02-18T08:26:27.560Z,32.22
2019-02-18T08:28:57.233Z,30.99
2019-02-18T08:31:27.169Z,30.65
2019-02-18T08:33:56.683Z,31.37
2019-02-18T08:36:26.281Z,29.87
2019-02-18T08:38:55.871Z,29.27
2019-02-18T08:41:25.394Z,28.55
2019-02-18T08:43:54.988Z,27.38
2019-02-18T08:46:24.520Z,29.22
2019-02-18T08:48:54.007Z,28.20
2019-02-18T08:51:23.567Z,28.88
2019-02-18T08:53:53.081Z,28.43
2019-02-18T08:56:22.603Z,28.15
2019-02-18T08:58:52.161Z,25.97
2019-02-18T09:01:21.672Z,25.99
2019-02-18T09:03:51.182Z,26.74
2019-02-18T09:06:21.220Z,25.76
2019-02-18T09:09:10.062Z,25.08
2019-02-18T09:11:40.071Z,23.83
2019-02-18T09:14:09.641Z,23.28
2019-02-18T09:16:39.204Z,23.59
2019-02-18T09:19:08.758Z,23.72
2019-02-18T09:21:38.340Z,24.36
2019-02-18T09:24:12.461Z,25.62
2019-02-18T09:26:42.370Z,25.55
2019-02-18T09:29:12.014Z,23.99
2019-02-18T09:31:42.873Z,22.54
2019-02-18T09:34:12.724Z,22.07
2019-02-18T09:36:42.352Z,21.93
2019-02-18T09:39:30.028Z,21.02
2019-02-18T09:41:49.989Z,20.57
2019-02-18T09:44:19.588Z,20.17
2019-02-18T09:46:49.764Z,20.11
2019-02-18T09:49:19.608Z,19.40
2019-02-18T09:51:49.179Z,19.40
2019-02-18T09:54:19.148Z,18.83
2019-02-18T09:56:48.649Z,18.24
2019-02-18T09:59:18.167Z,17.91
2019-02-18T10:01:47.696Z,18.56
2019-02-18T10:04:17.237Z,17.43
2019-02-18T10:06:46.750Z,17.22
2019-02-18T10:09:16.476Z,18.03
2019-02-18T10:11:47.170Z,17.47
2019-02-18T10:14:16.766Z,16.99
2019-02-18T10:16:46.306Z,16.45
2019-02-18T10:19:15.828Z,16.98
2019-02-18T10:21:45.386Z,16.88
2019-02-18T10:24:14.990Z,16.19
2019-02-18T10:26:44.494Z,15.90
2019-02-18T10:29:14.014Z,15.22
2019-02-18T10:31:43.670Z,15.18
2019-02-18T10:34:13.258Z,15.88
2019-02-18T10:36:42.762Z,16.45
2019-02-18T10:39:12.367Z,15.40
2019-02-18T10:41:41.898Z,16.87
2019-02-18T10:44:11.502Z,16.53
2019-02-18T10:46:41.117Z,14.82
2019-02-18T10:49:19.307Z,14.27
2019-02-18T10:51:41.914Z,13.06
2019-02-18T10:54:14.030Z,12.92
2019-02-18T10:56:44.632Z,13.75
2019-02-18T10:59:14.140Z,12.51
2019-02-18T11:01:43.745Z,14.26
2019-02-18T11:04:13.236Z,14.10
2019-02-18T11:06:42.757Z,14.06
2019-02-18T11:09:12.428Z,13.13
2019-02-18T11:11:42.000Z,12.67
2019-02-18T11:14:11.520Z,12.88
2019-02-18T11:16:41.360Z,12.54
2019-02-18T11:19:10.900Z,12.03
2019-02-18T11:21:40.423Z,12.15
2019-02-18T11:24:10.403Z,13.53
2019-02-18T11:26:40.013Z,13.15
2019-02-18T11:29:10.099Z,13.36
2019-02-18T11:31:39.832Z,15.08
2019-02-18T11:34:09.429Z,15.41
2019-02-18T11:36:39.118Z,14.58
2019-02-18T11:39:12.505Z,13.86
2019-02-18T11:41:42.511Z,13.50
2019-02-18T11:44:12.092Z,14.26
2019-02-18T11:46:41.802Z,16.13
2019-02-18T11:49:11.429Z,15.28
2019-02-18T11:51:41.001Z,15.65
2019-02-18T11:54:10.651Z,16.56
2019-02-18T11:56:40.335Z,17.33
2019-02-18T11:59:09.863Z,15.86
2019-02-18T12:01:39.909Z,16.30
2019-02-18T12:04:09.629Z,17.24
2019-02-18T12:06:39.273Z,17.01
2019-02-18T12:09:09.097Z,15.88
2019-02-18T12:11:38.703Z,14.98
2019-02-18T12:14:08.281Z,16.23
2019-02-18T12:16:37.831Z,16.02
2019-02-18T12:19:07.467Z,18.22
2019-02-18T12:21:37.000Z,17.12
2019-02-18T12:24:06.699Z,16.20
2019-02-18T12:26:36.397Z,16.33
2019-02-18T12:29:05.982Z,16.40
2019-02-18T12:31:35.597Z,17.07
2019-02-18T12:34:05.122Z,16.52
2019-02-18T12:36:34.720Z,17.39
2019-02-18T12:39:06.947Z,16.53
2019-02-18T12:41:36.453Z,17.79
2019-02-18T12:44:06.052Z,16.95
2019-02-18T12:46:35.913Z,17.53
2019-02-18T12:49:05.490Z,15.66
2019-02-18T12:51:35.001Z,15.05
2019-02-18T12:54:05.518Z,16.67
2019-02-18T12:56:35.271Z,16.62
2019-02-18T12:59:04.911Z,17.55
2019-02-18T13:01:34.471Z,18.92
2019-02-18T13:04:04.012Z,17.99
2019-02-18T13:06:33.619Z,18.21
2019-02-18T13:09:04.991Z,18.35
2019-02-18T13:11:34.985Z,16.69
2019-02-18T13:14:04.693Z,15.95
2019-02-18T13:16:34.255Z,16.55
2019-02-18T13:19:03.908Z,17.80
2019-02-18T13:21:33.481Z,18.24
2019-02-18T13:24:03.113Z,16.63
2019-02-18T13:26:32.687Z,15.95
2019-02-18T13:29:02.581Z,16.66
2019-02-18T13:31:32.324Z,16.33
2019-02-18T13:34:02.341Z,16.59
2019-02-18T13:36:31.855Z,18.11
2019-02-18T13:39:01.461Z,17.45
2019-02-18T13:41:30.981Z,17.15
2019-02-18T13:44:00.491Z,17.42
2019-02-18T13:46:30.105Z,17.81
2019-02-18T13:48:59.701Z,18.25
2019-02-18T13:51:29.299Z,18.67
2019-02-18T13:53:59.922Z,18.61
2019-02-18T13:56:29.557Z,18.27
2019-02-18T13:59:18.484Z,18.28
2019-02-18T14:01:48.135Z,19.04
2019-02-18T14:04:17.731Z,18.23
2019-02-18T14:06:47.304Z,18.29
2019-02-18T14:09:16.907Z,17.25
2019-02-18T14:11:46.512Z,17.10
2019-02-18T14:14:16.525Z,18.30
2019-02-18T14:16:46.064Z,18.67
2019-02-18T14:19:15.660Z,19.06
2019-02-18T14:21:45.851Z,19.42
2019-02-18T14:24:15.367Z,18.92
2019-02-18T14:26:44.981Z,19.20
2019-02-18T14:29:14.531Z,18.42
2019-02-18T14:31:44.110Z,18.90
2019-02-18T14:34:13.753Z,19.81
2019-02-18T14:36:44.730Z,19.69
2019-02-18T14:39:15.950Z,19.38
2019-02-18T14:41:45.546Z,19.01
2019-02-18T14:44:15.156Z,18.88
2019-02-18T14:46:44.820Z,18.55
2019-02-18T14:49:14.432Z,18.92
2019-02-18T14:51:44.564Z,19.40
2019-02-18T14:54:14.061Z,19.97
2019-02-18T14:56:43.830Z,19.86
2019-02-18T14:59:13.462Z,21.33
2019-02-18T15:01:43.854Z,21.96
2019-02-18T15:04:13.430Z,21.65
2019-02-18T15:06:43.043Z,21.61
2019-02-18T15:09:12.623Z,21.75
2019-02-18T15:11:42.332Z,22.38
2019-02-18T15:14:11.945Z,23.07
2019-02-18T15:16:41.471Z,22.98
2019-02-18T15:19:12.018Z,22.31
2019-02-18T15:21:41.930Z,21.44
2019-02-18T15:24:11.932Z,21.61
2019-02-18T15:26:41.508Z,21.68
2019-02-18T15:29:11.076Z,23.12
2019-02-18T15:31:40.682Z,23.99
2019-02-18T15:34:10.713Z,23.87
2019-02-18T15:36:40.353Z,23.62
2019-02-18T15:39:09.999Z,23.66
2019-02-18T15:41:39.507Z,23.13
2019-02-18T15:44:09.369Z,22.73
2019-02-18T15:46:38.997Z,23.45
2019-02-18T15:49:08.738Z,24.53
2019-02-18T15:51:38.372Z,24.62
2019-02-18T15:54:10.822Z,25.22
2019-02-18T15:56:40.439Z,26.73
2019-02-18T15:59:12.929Z,27.90
2019-02-18T16:01:42.896Z,28.76
2019-02-18T16:04:12.477Z,29.31
2019-02-18T16:06:42.029Z,29.70
2019-02-18T16:09:11.600Z,30.65
2019-02-18T16:11:41.106Z,30.86
2019-02-18T16:14:10.643Z,30.65
2019-02-18T16:16:40.160Z,31.17
2019-02-18T16:19:09.740Z,31.27
2019-02-18T16:21:41.021Z,31.39
2019-02-18T16:24:19.603Z,31.87
2019-02-18T16:26:41.813Z,32.27
2019-02-18T16:29:11.386Z,32.73
2019-02-18T16:31:41.303Z,33.03
2019-02-18T16:34:11.497Z,33.12
2019-02-18T16:36:41.923Z,33.28
2019-02-18T16:39:12.459Z,34.03
2019-02-18T16:41:41.977Z,34.72
2019-02-18T16:44:12.019Z,35.38
2019-02-18T16:46:41.550Z,35.96
2019-02-18T16:49:11.453Z,36.73
2019-02-18T16:51:40.989Z,37.12
2019-02-18T16:54:10.535Z,37.98
2019-02-18T16:56:40.079Z,38.46
2019-02-18T16:59:10.262Z,38.73
2019-02-18T17:01:39.958Z,38.89
2019-02-18T17:04:09.549Z,39.32
2019-02-18T17:06:39.167Z,40.15
2019-02-18T17:09:14.315Z,40.54
2019-02-18T17:11:43.887Z,41.24
2019-02-18T17:14:13.534Z,41.58
2019-02-18T17:16:43.050Z,41.99
2019-02-18T17:19:12.639Z,42.51
2019-02-18T17:21:42.180Z,42.67
2019-02-18T17:24:11.763Z,42.44
2019-02-18T17:26:41.283Z,42.84
2019-02-18T17:29:10.887Z,43.30
2019-02-18T17:31:40.404Z,43.76
2019-02-18T17:34:09.908Z,43.96
2019-02-18T17:36:40.167Z,44.31
2019-02-18T17:39:10.465Z,44.81
2019-02-18T17:41:39.961Z,45.21
2019-02-18T17:44:09.775Z,45.21
2019-02-18T17:46:39.658Z,45.81
2019-02-18T17:49:09.357Z,45.58
2019-02-18T17:51:39.124Z,45.51
2019-02-18T17:54:08.930Z,45.93
2019-02-18T17:56:38.524Z,45.65
2019-02-18T17:59:08.633Z,45.51
2019-02-18T18:01:38.737Z,45.74
2019-02-18T18:04:08.602Z,45.71
2019-02-18T18:06:39.754Z,45.83
2019-02-18T18:09:10.128Z,45.76
2019-02-18T18:11:39.813Z,45.78
2019-02-18T18:14:09.961Z,46.14
2019-02-18T18:16:40.286Z,46.33
2019-02-18T18:19:10.083Z,46.91
2019-02-18T18:21:39.788Z,46.84
2019-02-18T18:24:09.711Z,46.67
2019-02-18T18:26:39.389Z,46.91
2019-02-18T18:29:09.088Z,47.55
2019-02-18T18:31:38.950Z,47.32
2019-02-18T18:34:08.879Z,47.30
2019-02-18T18:36:39.531Z,47.29
2019-02-18T18:39:09.494Z,47.23
2019-02-18T18:41:39.156Z,47.03
2019-02-18T18:44:09.038Z,47.28
2019-02-18T18:46:38.708Z,47.40
2019-02-18T18:49:08.347Z,48.25
2019-02-18T18:51:38.790Z,48.33
2019-02-18T18:54:08.631Z,48.33
2019-02-18T18:56:38.231Z,48.71
2019-02-18T18:59:08.111Z,48.94
2019-02-18T19:01:37.817Z,49.04
2019-02-18T19:04:07.576Z,49.33
2019-02-18T19:06:37.116Z,49.61
2019-02-18T19:09:06.781Z,49.71
2019-02-18T19:11:36.355Z,49.59
2019-02-18T19:14:05.930Z,50.17
2019-02-18T19:16:35.561Z,50.29
2019-02-18T19:19:05.539Z,50.40
2019-02-18T19:21:35.543Z,50.35
2019-02-18T19:24:05.486Z,50.69
2019-02-18T19:26:34.993Z,50.48
2019-02-18T19:29:04.595Z,50.55
2019-02-18T19:31:34.084Z,51.10
2019-02-18T19:34:03.693Z,51.29
2019-02-18T19:36:33.340Z,51.17
2019-02-18T19:39:03.561Z,51.48
2019-02-18T19:41:33.335Z,51.45
2019-02-18T19:44:02.980Z,51.54
2019-02-18T19:46:32.790Z,51.75
2019-02-18T19:49:02.280Z,50.85
2019-02-18T19:51:31.901Z,51.20
2019-02-18T19:54:01.446Z,51.04
2019-02-18T19:56:30.949Z,51.34
2019-02-18T19:59:00.495Z,51.91
2019-02-18T20:01:30.084Z,52.13
2019-02-18T20:03:59.666Z,52.37
2019-02-18T20:06:29.275Z,52.55
2019-02-18T20:08:58.791Z,52.70
2019-02-18T20:11:28.428Z,53.03
2019-02-18T20:13:59.052Z,53.16
2019-02-18T20:16:29.176Z,53.30
2019-02-18T20:18:58.694Z,53.33
2019-02-18T20:21:28.254Z,53.54
2019-02-18T20:23:57.825Z,53.84
2019-02-18T20:26:27.431Z,54.04
2019-02-18T20:28:58.559Z,54.45
2019-02-18T20:31:28.094Z,54.42
2019-02-18T20:33:57.671Z,54.82
2019-02-18T20:36:27.269Z,55.28
2019-02-18T20:38:58.528Z,55.24
2019-02-18T20:41:28.103Z,55.30
2019-02-18T20:43:57.780Z,55.88
2019-02-18T20:46:27.299Z,56.80
2019-02-18T20:48:56.910Z,57.05
2019-02-18T20:51:26.999Z,57.33
2019-02-18T20:53:57.781Z,58.27
2019-02-18T20:56:27.761Z,57.84
2019-02-18T20:58:57.465Z,58.04
2019-02-18T21:01:27.058Z,57.83
2019-02-18T21:03:57.296Z,58.65
2019-02-18T21:06:27.315Z,58.65
2019-02-18T21:08:56.863Z,58.69
2019-02-18T21:11:26.476Z,59.33
2019-02-18T21:13:56.098Z,59.18
2019-02-18T21:16:25.675Z,59.17
2019-02-18T21:18:55.359Z,59.18
2019-02-18T21:21:25.017Z,59.38
2019-02-18T21:23:55.165Z,59.65
2019-02-18T21:26:24.734Z,59.59
2019-02-18T21:28:54.478Z,58.80
2019-02-18T21:31:24.092Z,58.70
2019-02-18T21:33:53.691Z,58.63
2019-02-18T21:36:23.302Z,58.87
2019-02-18T21:38:53.229Z,58.79
2019-02-18T21:41:22.898Z,58.57
2019-02-18T21:43:52.459Z,59.33
2019-02-18T21:46:22.120Z,59.19
2019-02-18T21:48:51.674Z,58.49
2019-02-18T21:51:21.265Z,58.69
2019-02-18T21:53:51.006Z,58.54
2019-02-18T21:56:20.749Z,58.42
2019-02-18T21:58:50.298Z,58.59
2019-02-18T22:01:19.821Z,58.92
2019-02-18T22:03:49.342Z,58.92
2019-02-18T22:06:18.933Z,58.28
2019-02-18T22:08:48.494Z,57.84
2019-02-18T22:11:18.229Z,57.61
2019-02-18T22:13:48.083Z,58.17
2019-02-18T22:16:17.750Z,58.14
2019-02-18T22:18:47.292Z,57.92
2019-02-18T22:21:16.934Z,57.65
2019-02-18T22:23:46.804Z,57.91
2019-02-18T22:26:16.510Z,57.27
2019-02-18T22:28:46.088Z,57.47
2019-02-18T22:31:15.777Z,57.67
2019-02-18T22:33:45.282Z,57.88
2019-02-18T22:36:14.953Z,57.37
2019-02-18T22:38:44.833Z,57.95
2019-02-18T22:41:14.475Z,58.15
2019-02-18T22:43:44.174Z,57.95
2019-02-18T22:46:13.776Z,58.14
2019-02-18T22:48:43.303Z,58.02
2019-02-18T22:51:12.918Z,57.61
2019-02-18T22:53:42.924Z,57.57
2019-02-18T22:56:12.502Z,57.64
2019-02-18T22:58:42.131Z,57.51
2019-02-18T23:01:12.398Z,57.58
2019-02-18T23:03:42.091Z,58.04
2019-02-18T23:06:11.809Z,58.65
2019-02-18T23:08:42.973Z,58.40
2019-02-18T23:11:13.066Z,57.74
2019-02-18T23:13:46.132Z,58.04
2019-02-18T23:16:15.700Z,57.74
2019-02-18T23:18:45.202Z,57.81
2019-02-18T23:21:14.744Z,57.64
2019-02-18T23:23:44.729Z,57.66
2019-02-18T23:26:14.241Z,58.34
2019-02-18T23:28:43.892Z,58.01
2019-02-18T23:31:13.552Z,57.14
2019-02-18T23:33:43.284Z,56.73
2019-02-18T23:36:13.377Z,56.48
2019-02-18T23:38:42.969Z,56.35
2019-02-18T23:41:12.542Z,56.57
2019-02-18T23:43:42.188Z,56.96
2019-02-18T23:46:11.695Z,57.27
2019-02-18T23:48:41.222Z,56.94
2019-02-18T23:51:10.767Z,57.20
2019-02-18T23:53:40.316Z,57.25
2019-02-18T23:56:18.322Z,56.92
2019-02-18T23:58:47.912Z,56.67
